Time;durP1;ratioP1;P1;durP2;ratioP2;P2;SDS_P1;SDS_P2;PMS_P1;PMS_P2;Temp;Humidity;BMP_temperature;BMP_pressure;BME280_temperature;BME280_humidity;BME280_pressure;Samples;Min_cycle;Max_cycle;Signal;HPM_P1;HPM_P2
2023/07/10 00:00:38;;;;;;;;;;;;;;;;;;5030231;28;19948;-66
2023/07/10 00:03:05;;;;;;;;;;;;;;;;;;5037097;28;19925;-66
2023/07/10 00:05:31;;;;;;;;;;;;;;;;;;5050155;28;19931;-66
2023/07/10 00:07:58;;;;;;;;;;;;;;;;;;5049642;28;20352;-66
2023/07/10 00:10:28;;;;;;;;;;;;;;;;;;5050214;28;20012;-65
2023/07/10 00:12:55;;;;;;;;;;;;;;;;;;5050028;28;20297;-66
2023/07/10 00:15:22;;;;;;;;;;;;;;;;;;5050388;28;20028;-65
2023/07/10 00:17:50;;;;;;;;;;;;;;;;;;5050473;28;19925;-65
2023/07/10 00:20:18;;;;;;;;;;;;;;;;;;5050056;28;19932;-66
2023/07/10 00:22:44;;;;;;;;;;;;;;;;;;5050467;28;19924;-66
2023/07/10 00:25:11;;;;;;;;;;;;;;;;;;5049969;28;20213;-66
2023/07/10 00:27:37;;;;;;;;;;;;;;;;;;5050191;28;19935;-66
2023/07/10 00:30:06;;;;;;;;;;;;;;;;;;5049300;28;20007;-66
2023/07/10 00:32:33;;;;;;;;;;;;;;;;;;5045026;28;19925;-66
2023/07/10 00:35:00;;;;;;;;;;;;;;;;;;5028880;28;20401;-66
2023/07/10 00:37:26;;;;;;;;;;;;;;;;;;5030301;28;19952;-65
2023/07/10 00:39:53;;;;;;;;;;;;;;;;;;5029336;28;19925;-66
2023/07/10 00:42:21;;;;;;;;;;;;;;;;;;5030283;28;20219;-66
2023/07/10 00:44:51;;;;;;;;;;;;;;;;;;5031807;28;19929;-66
2023/07/10 00:47:19;;;;;;;;;;;;;;;;;;5033892;28;19936;-66
2023/07/10 00:49:49;;;;;;;;;;;;;;;;;;5033047;28;19932;-66
2023/07/10 00:52:17;;;;;;;;;;;;;;;;;;5033947;28;20314;-66
2023/07/10 00:54:45;;;;;;;;;;;;;;;;;;5033500;28;19925;-66
2023/07/10 00:57:14;;;;;;;;;;;;;;;;;;5033671;28;19925;-66
2023/07/10 00:59:42;;;;;;;;;;;;;;;;;;5033314;28;19933;-66
2023/07/10 01:02:16;;;;;;;;;;;;;;;;;;5032115;28;19925;-66
2023/07/10 01:04:43;;;;;;;;;;;;;;;;;;5033896;28;19931;-66
2023/07/10 01:07:13;;;;;;;;;;;;;;;;;;5033303;28;20334;-65
2023/07/10 01:09:40;;;;;;;;;;;;;;;;;;5033451;28;19932;-65
2023/07/10 01:12:07;;;;;;;;;;;;;;;;;;5033053;28;19925;-65
2023/07/10 01:14:35;;;;;;;;;;;;;;;;;;5033096;28;20012;-65
2023/07/10 01:17:01;;;;;;;;;;;;;;;;;;5033185;28;19929;-66
2023/07/10 01:19:28;;;;;;;;;;;;;;;;;;5033692;28;20337;-65
2023/07/10 01:21:56;;;;;;;;;;;;;;;;;;5033028;28;19931;-65
2023/07/10 01:24:22;;;;;;;;;;;;;;;;;;5033675;28;19925;-66
2023/07/10 01:26:49;;;;;;;;;;;;;;;;;;5032816;28;19925;-66
2023/07/10 01:29:18;;;;;;;;;;;;;;;;;;5033181;28;20397;-66
2023/07/10 01:31:45;;;;;;;;;;;;;;;;;;5033027;28;19925;-66
2023/07/10 01:34:13;;;;;;;;;;;;;;;;;;5048084;28;19924;-66
2023/07/10 01:36:40;;;;;;;;;;;;;;;;;;5053102;28;19924;-66
2023/07/10 01:39:21;;;;;;;;;;;;;;;;;;5052805;28;19925;-65
2023/07/10 01:41:48;;;;;;;;;;;;;;;;;;5052508;28;19935;-65
2023/07/10 01:44:18;;;;;;;;;;;;;;;;;;5052170;28;19925;-66
2023/07/10 01:46:45;;;;;;;;;;;;;;;;;;5053092;28;19925;-65
2023/07/10 01:49:12;;;;;;;;;;;;;;;;;;5052101;28;20298;-66
2023/07/10 01:51:38;;;;;;;;;;;;;;;;;;5052195;28;19968;-66
2023/07/10 01:54:05;;;;;;;;;;;;;;;;;;5051737;28;19931;-66
2023/07/10 01:56:33;;;;;;;;;;;;;;;;;;5051513;28;19992;-66
2023/07/10 01:59:00;;;;;;;;;;;;;;;;;;5051676;28;19931;-66
2023/07/10 02:01:26;;;;;;;;;;;;;;;;;;5051887;28;20401;-65
2023/07/10 02:03:53;;;;;;;;;;;;;;;;;;5050332;28;19925;-66
2023/07/10 02:06:21;;;;;;;;;;;;;;;;;;5052223;28;20555;-66
2023/07/10 02:08:48;;;;;;;;;;;;;;;;;;5052024;28;20343;-65
2023/07/10 02:11:14;;;;;;;;;;;;;;;;;;5051323;28;19925;-65
2023/07/10 02:13:42;;;;;;;;;;;;;;;;;;5051875;28;19931;-66
2023/07/10 02:16:10;;;;;;;;;;;;;;;;;;5051639;28;19925;-66
2023/07/10 02:18:37;;;;;;;;;;;;;;;;;;5051691;28;20362;-65
2023/07/10 02:21:03;;;;;;;;;;;;;;;;;;5051005;28;19924;-65
2023/07/10 02:23:30;;;;;;;;;;;;;;;;;;5051702;28;20019;-66
2023/07/10 02:25:56;;;;;;;;;;;;;;;;;;5051640;28;20233;-66
2023/07/10 02:28:22;;;;;;;;;;;;;;;;;;5052091;28;20003;-66
2023/07/10 02:30:50;;;;;;;;;;;;;;;;;;5049681;28;19928;-65
2023/07/10 02:33:18;;;;;;;;;;;;;;;;;;5051612;28;19936;-66
2023/07/10 02:35:45;;;;;;;;;;;;;;;;;;5049881;28;19956;-66
2023/07/10 02:38:11;;;;;;;;;;;;;;;;;;5051460;28;20012;-66
2023/07/10 02:40:38;;;;;;;;;;;;;;;;;;5051166;28;19931;-65
2023/07/10 02:43:04;;;;;;;;;;;;;;;;;;5051000;28;20011;-65
2023/07/10 02:45:31;;;;;;;;;;;;;;;;;;5051232;28;19924;-65
2023/07/10 02:47:58;;;;;;;;;;;;;;;;;;5050813;28;19931;-66
2023/07/10 02:50:25;;;;;;;;;;;;;;;;;;5050797;28;19924;-65
2023/07/10 02:52:51;;;;;;;;;;;;;;;;;;5050882;28;19924;-65
2023/07/10 02:55:18;;;;;;;;;;;;;;;;;;5051242;28;20023;-66
2023/07/10 02:57:44;;;;;;;;;;;;;;;;;;5050834;28;20117;-65
2023/07/10 03:00:11;;;;;;;;;;;;;;;;;;5050805;28;20015;-65
2023/07/10 03:02:37;;;;;;;;;;;;;;;;;;5044916;28;20375;-65
2023/07/10 03:05:05;;;;;;;;;;;;;;;;;;5031553;28;19926;-66
2023/07/10 03:07:32;;;;;;;;;;;;;;;;;;5030467;28;20276;-65
2023/07/10 03:09:58;;;;;;;;;;;;;;;;;;5030804;28;20525;-65
2023/07/10 03:12:24;;;;;;;;;;;;;;;;;;5031108;28;20008;-66
2023/07/10 03:14:51;;;;;;;;;;;;;;;;;;5030516;28;19925;-66
2023/07/10 03:17:18;;;;;;;;;;;;;;;;;;5030711;28;19929;-65
2023/07/10 03:19:45;;;;;;;;;;;;;;;;;;5030265;28;19947;-66
2023/07/10 03:22:12;;;;;;;;;;;;;;;;;;5031205;28;20361;-65
2023/07/10 03:24:39;;;;;;;;;;;;;;;;;;5030216;28;19925;-65
2023/07/10 03:27:06;;;;;;;;;;;;;;;;;;5030713;28;20481;-65
2023/07/10 03:29:32;;;;;;;;;;;;;;;;;;5029949;28;19925;-65
2023/07/10 03:31:58;;;;;;;;;;;;;;;;;;5030683;28;19932;-65
2023/07/10 03:34:25;;;;;;;;;;;;;;;;;;5028397;28;19926;-66
2023/07/10 03:36:51;;;;;;;;;;;;;;;;;;5030869;28;20022;-65
2023/07/10 03:39:19;;;;;;;;;;;;;;;;;;5030204;28;20019;-65
2023/07/10 03:41:45;;;;;;;;;;;;;;;;;;5030128;28;19925;-66
2023/07/10 03:44:13;;;;;;;;;;;;;;;;;;5030485;28;19937;-67
2023/07/10 03:46:39;;;;;;;;;;;;;;;;;;5029938;28;20055;-67
2023/07/10 03:49:06;;;;;;;;;;;;;;;;;;5030625;28;19925;-67
2023/07/10 03:51:32;;;;;;;;;;;;;;;;;;5029479;28;20021;-68
2023/07/10 03:53:59;;;;;;;;;;;;;;;;;;5030538;28;19969;-67
2023/07/10 03:56:26;;;;;;;;;;;;;;;;;;5030100;28;20458;-67
2023/07/10 03:58:53;;;;;;;;;;;;;;;;;;5030265;28;19935;-68
2023/07/10 04:01:19;;;;;;;;;;;;;;;;;;5029444;28;20477;-68
2023/07/10 04:03:46;;;;;;;;;;;;;;;;;;5029360;28;20019;-67
2023/07/10 04:06:13;;;;;;;;;;;;;;;;;;5029928;28;20378;-67
2023/07/10 04:08:40;;;;;;;;;;;;;;;;;;5030492;28;20375;-68
2023/07/10 04:11:08;;;;;;;;;;;;;;;;;;5029445;28;19929;-68
2023/07/10 04:13:36;;;;;;;;;;;;;;;;;;5030118;28;20433;-68
2023/07/10 04:16:03;;;;;;;;;;;;;;;;;;5030231;28;19925;-68
2023/07/10 04:18:30;;;;;;;;;;;;;;;;;;5030709;28;19932;-68
2023/07/10 04:20:57;;;;;;;;;;;;;;;;;;5034074;28;19925;-68
2023/07/10 04:23:23;;;;;;;;;;;;;;;;;;5033685;28;19947;-68
2023/07/10 04:25:50;;;;;;;;;;;;;;;;;;5034196;28;20015;-67
2023/07/10 04:28:16;;;;;;;;;;;;;;;;;;5033773;28;19931;-68
2023/07/10 04:30:44;;;;;;;;;;;;;;;;;;5033767;28;20024;-67
2023/07/10 04:33:11;;;;;;;;;;;;;;;;;;5032910;28;19935;-68
2023/07/10 04:35:38;;;;;;;;;;;;;;;;;;5033207;28;20427;-67
2023/07/10 04:38:04;;;;;;;;;;;;;;;;;;5033971;28;19932;-67
2023/07/10 04:40:31;;;;;;;;;;;;;;;;;;5033740;28;19935;-67
2023/07/10 04:42:57;;;;;;;;;;;;;;;;;;5033360;28;20040;-67
2023/07/10 04:45:23;;;;;;;;;;;;;;;;;;5034447;28;20271;-67
2023/07/10 04:47:51;;;;;;;;;;;;;;;;;;5034008;28;20019;-68
2023/07/10 04:50:18;;;;;;;;;;;;;;;;;;5033199;28;20047;-68
2023/07/10 04:52:44;;;;;;;;;;;;;;;;;;5033901;28;20272;-68
2023/07/10 04:55:11;;;;;;;;;;;;;;;;;;5033281;28;19929;-68
2023/07/10 04:57:37;;;;;;;;;;;;;;;;;;5033721;28;19935;-68
2023/07/10 05:00:05;;;;;;;;;;;;;;;;;;5032980;28;19970;-68
2023/07/10 05:02:31;;;;;;;;;;;;;;;;;;5032612;28;19929;-67
2023/07/10 05:04:59;;;;;;;;;;;;;;;;;;5032988;28;19925;-67
2023/07/10 05:07:25;;;;;;;;;;;;;;;;;;5033456;28;19979;-68
2023/07/10 05:09:52;;;;;;;;;;;;;;;;;;5032202;28;19947;-68
2023/07/10 05:12:18;;;;;;;;;;;;;;;;;;5033737;28;19935;-67
2023/07/10 05:14:45;;;;;;;;;;;;;;;;;;5032696;28;19925;-68
2023/07/10 05:17:11;;;;;;;;;;;;;;;;;;5031997;28;20213;-66
2023/07/10 05:19:37;;;;;;;;;;;;;;;;;;5032025;28;19925;-66
2023/07/10 05:22:05;;;;;;;;;;;;;;;;;;5032353;28;19925;-67
2023/07/10 05:24:32;;;;;;;;;;;;;;;;;;5032963;28;20357;-66
2023/07/10 05:26:58;;;;;;;;;;;;;;;;;;5049476;28;19931;-67
2023/07/10 05:29:24;;;;;;;;;;;;;;;;;;5052811;28;19925;-66
2023/07/10 05:31:51;;;;;;;;;;;;;;;;;;5051965;28;19929;-66
2023/07/10 05:34:22;;;;;;;;;;;;;;;;;;5032121;28;19929;-67
2023/07/10 05:36:48;;;;;;;;;;;;;;;;;;5031927;28;19925;-67
2023/07/10 05:39:16;;;;;;;;;;;;;;;;;;5032599;28;20305;-66
2023/07/10 05:41:43;;;;;;;;;;;;;;;;;;5032371;28;19925;-67
2023/07/10 05:44:09;;;;;;;;;;;;;;;;;;5030673;28;19947;-67
2023/07/10 05:46:36;;;;;;;;;;;;;;;;;;5032732;28;19931;-66
2023/07/10 05:49:02;;;;;;;;;;;;;;;;;;5031984;28;19935;-67
2023/07/10 05:51:28;;;;;;;;;;;;;;;;;;5032703;28;20298;-66
2023/07/10 05:53:56;;;;;;;;;;;;;;;;;;5032211;28;20374;-66
2023/07/10 05:56:24;;;;;;;;;;;;;;;;;;5030883;28;19959;-66
2023/07/10 05:58:51;;;;;;;;;;;;;;;;;;5031592;28;19925;-67
2023/07/10 06:01:17;;;;;;;;;;;;;;;;;;5032203;28;20286;-67
2023/07/10 06:03:44;;;;;;;;;;;;;;;;;;5031444;28;19925;-66
2023/07/10 06:06:10;;;;;;;;;;;;;;;;;;5031757;28;19941;-66
2023/07/10 06:08:37;;;;;;;;;;;;;;;;;;5032359;28;20050;-67
2023/07/10 06:11:04;;;;;;;;;;;;;;;;;;5031421;28;19932;-66
2023/07/10 06:13:32;;;;;;;;;;;;;;;;;;5032245;28;19931;-67
2023/07/10 06:15:59;;;;;;;;;;;;;;;;;;5031282;28;19924;-66
2023/07/10 06:18:26;;;;;;;;;;;;;;;;;;5029356;28;20454;-67
2023/07/10 06:20:53;;;;;;;;;;;;;;;;;;5011485;28;20418;-67
2023/07/10 06:23:19;;;;;;;;;;;;;;;;;;5012037;28;19926;-67
2023/07/10 06:25:45;;;;;;;;;;;;;;;;;;5017725;28;19925;-66
2023/07/10 06:28:12;;;;;;;;;;;;;;;;;;5047205;28;20350;-67
2023/07/10 06:30:41;;;;;;;;;;;;;;;;;;5051047;28;19924;-67
2023/07/10 06:33:07;;;;;;;;;;;;;;;;;;5011488;28;20399;-67
2023/07/10 06:35:33;;;;;;;;;;;;;;;;;;5028211;28;19925;-66
2023/07/10 06:38:00;;;;;;;;;;;;;;;;;;5031658;28;20016;-69
2023/07/10 06:40:26;;;;;;;;;;;;;;;;;;5029797;28;19948;-67
2023/07/10 06:42:53;;;;;;;;;;;;;;;;;;5030452;28;19962;-66
2023/07/10 06:45:19;;;;;;;;;;;;;;;;;;5030867;28;19932;-68
2023/07/10 06:47:47;;;;;;;;;;;;;;;;;;5031806;28;20307;-67
2023/07/10 06:50:14;;;;;;;;;;;;;;;;;;5030716;28;19925;-67
2023/07/10 06:52:42;;;;;;;;;;;;;;;;;;5031623;28;19931;-68
2023/07/10 06:55:14;;;;;;;;;;;;;;;;;;5031102;28;20394;-68
2023/07/10 06:57:40;;;;;;;;;;;;;;;;;;5031462;28;19931;-68
2023/07/10 07:00:08;;;;;;;;;;;;;;;;;;5031120;28;19948;-68
2023/07/10 07:02:34;;;;;;;;;;;;;;;;;;5028407;28;20264;-67
2023/07/10 07:05:02;;;;;;;;;;;;;;;;;;5030833;28;19925;-68
2023/07/10 07:07:29;;;;;;;;;;;;;;;;;;5030627;28;19933;-67
2023/07/10 07:09:55;;;;;;;;;;;;;;;;;;5030688;28;20028;-67
2023/07/10 07:12:22;;;;;;;;;;;;;;;;;;5030164;28;20298;-68
2023/07/10 07:14:48;;;;;;;;;;;;;;;;;;5024819;28;19964;-68
2023/07/10 07:17:15;;;;;;;;;;;;;;;;;;5023127;28;20027;-68
2023/07/10 07:19:42;;;;;;;;;;;;;;;;;;5041463;28;19925;-69
2023/07/10 07:22:09;;;;;;;;;;;;;;;;;;5040820;28;19925;-67
2023/07/10 07:24:37;;;;;;;;;;;;;;;;;;5032118;28;20339;-68
2023/07/10 07:27:03;;;;;;;;;;;;;;;;;;5041875;28;19925;-68
2023/07/10 07:29:30;;;;;;;;;;;;;;;;;;5049420;28;20406;-67
2023/07/10 07:31:56;;;;;;;;;;;;;;;;;;5038686;28;20032;-69
2023/07/10 07:34:22;;;;;;;;;;;;;;;;;;5047253;28;20023;-68
2023/07/10 07:36:49;;;;;;;;;;;;;;;;;;5033078;28;19925;-67
2023/07/10 07:39:17;;;;;;;;;;;;;;;;;;5031260;28;20015;-66
2023/07/10 07:41:44;;;;;;;;;;;;;;;;;;5041087;28;19929;-66
2023/07/10 07:44:10;;;;;;;;;;;;;;;;;;5036792;28;19925;-66
2023/07/10 07:46:36;;;;;;;;;;;;;;;;;;5050564;28;19925;-66
2023/07/10 07:49:04;;;;;;;;;;;;;;;;;;5032239;28;20409;-66
2023/07/10 07:51:31;;;;;;;;;;;;;;;;;;5028516;28;20011;-67
2023/07/10 07:54:04;;;;;;;;;;;;;;;;;;5028134;28;20310;-66
2023/07/10 07:56:33;;;;;;;;;;;;;;;;;;5029458;28;19925;-67
2023/07/10 07:58:59;;;;;;;;;;;;;;;;;;5043600;28;19925;-67
2023/07/10 08:01:25;;;;;;;;;;;;;;;;;;5036666;28;19925;-66
2023/07/10 08:03:52;;;;;;;;;;;;;;;;;;5029418;28;20106;-67
2023/07/10 08:06:19;;;;;;;;;;;;;;;;;;5029489;28;19951;-68
2023/07/10 08:08:45;;;;;;;;;;;;;;;;;;5039657;28;19925;-67
2023/07/10 08:11:12;;;;;;;;;;;;;;;;;;5036593;28;19925;-67
2023/07/10 08:13:40;;;;;;;;;;;;;;;;;;5029633;28;20338;-67
2023/07/10 08:16:06;;;;;;;;;;;;;;;;;;5029230;28;19931;-68
2023/07/10 08:18:32;;;;;;;;;;;;;;;;;;5031618;28;20004;-68
2023/07/10 08:21:02;;;;;;;;;;;;;;;;;;5043638;28;19931;-68
2023/07/10 08:23:28;;;;;;;;;;;;;;;;;;5028055;28;19925;-68
2023/07/10 08:25:55;;;;;;;;;;;;;;;;;;5034814;28;20028;-68
2023/07/10 08:28:21;;;;;;;;;;;;;;;;;;5045357;28;19931;-67
2023/07/10 08:30:49;;;;;;;;;;;;;;;;;;5042244;28;19931;-68
2023/07/10 08:33:15;;;;;;;;;;;;;;;;;;5047862;28;19925;-68
2023/07/10 08:35:42;;;;;;;;;;;;;;;;;;5047764;28;19925;-68
2023/07/10 08:38:08;;;;;;;;;;;;;;;;;;5036361;28;19932;-68
2023/07/10 08:40:36;;;;;;;;;;;;;;;;;;5033354;28;19933;-67
2023/07/10 08:43:05;;;;;;;;;;;;;;;;;;5024780;28;19931;-67
2023/07/10 08:45:34;;;;;;;;;;;;;;;;;;5039020;28;19925;-67
2023/07/10 08:48:07;;;;;;;;;;;;;;;;;;5029781;28;19935;-68
2023/07/10 08:50:34;;;;;;;;;;;;;;;;;;5029140;28;19925;-68
2023/07/10 08:53:03;;;;;;;;;;;;;;;;;;5029631;28;20309;-67
2023/07/10 08:55:32;;;;;;;;;;;;;;;;;;5027411;28;20325;-67
2023/07/10 08:58:01;;;;;;;;;;;;;;;;;;5027969;28;19925;-68
2023/07/10 09:00:28;;;;;;;;;;;;;;;;;;5029961;28;19932;-65
2023/07/10 09:03:01;;;;;;;;;;;;;;;;;;5028762;28;19937;-65
2023/07/10 09:05:30;;;;;;;;;;;;;;;;;;5035856;28;20379;-64
2023/07/10 09:07:58;;;;;;;;;;;;;;;;;;5033371;28;19925;-66
2023/07/10 09:10:25;;;;;;;;;;;;;;;;;;5031524;28;19929;-66
2023/07/10 09:12:53;;;;;;;;;;;;;;;;;;5033671;28;20187;-65
2023/07/10 09:15:25;;;;;;;;;;;;;;;;;;5032153;28;19932;-64
2023/07/10 09:17:58;;;;;;;;;;;;;;;;;;5028297;28;19983;-65
2023/07/10 09:20:25;;;;;;;;;;;;;;;;;;5039209;28;19932;-64
2023/07/10 09:22:55;;;;;;;;;;;;;;;;;;5043526;28;20280;-66
2023/07/10 09:25:22;;;;;;;;;;;;;;;;;;5050522;28;20406;-65
2023/07/10 09:27:48;;;;;;;;;;;;;;;;;;5052346;28;19924;-67
2023/07/10 09:30:27;;;;;;;;;;;;;;;;;;5036629;28;19984;-68
2023/07/10 09:33:00;;;;;;;;;;;;;;;;;;5044275;28;19925;-66
2023/07/10 09:35:26;;;;;;;;;;;;;;;;;;5021590;28;20318;-68
2023/07/10 09:37:54;;;;;;;;;;;;;;;;;;5040949;28;19940;-67
2023/07/10 09:40:29;;;;;;;;;;;;;;;;;;5025906;28;19961;-67
2023/07/10 09:43:01;;;;;;;;;;;;;;;;;;5029685;28;19936;-66
2023/07/10 09:45:32;;;;;;;;;;;;;;;;;;5031998;28;20012;-67
2023/07/10 09:47:58;;;;;;;;;;;;;;;;;;5031236;28;19931;-66
2023/07/10 09:50:25;;;;;;;;;;;;;;;;;;5028268;28;20348;-68
2023/07/10 09:52:52;;;;;;;;;;;;;;;;;;5031334;28;19925;-67
2023/07/10 09:55:22;;;;;;;;;;;;;;;;;;5030574;28;20605;-68
2023/07/10 09:57:51;;;;;;;;;;;;;;;;;;5037007;28;19925;-69
2023/07/10 10:00:18;;;;;;;;;;;;;;;;;;5044053;28;20243;-68
2023/07/10 10:02:49;;;;;;;;;;;;;;;;;;5029511;28;19935;-69
2023/07/10 10:05:17;;;;;;;;;;;;;;;;;;5048998;28;20185;-67
2023/07/10 10:07:45;;;;;;;;;;;;;;;;;;5028724;28;20367;-67
2023/07/10 10:10:29;;;;;;;;;;;;;;;;;;5029736;28;19925;-68
2023/07/10 10:13:02;;;;;;;;;;;;;;;;;;5050996;28;20012;-68
2023/07/10 10:15:33;;;;;;;;;;;;;;;;;;5028389;28;19925;-67
2023/07/10 10:18:03;;;;;;;;;;;;;;;;;;5028965;28;19947;-67
2023/07/10 10:20:31;;;;;;;;;;;;;;;;;;5036978;28;19934;-67
2023/07/10 10:22:57;;;;;;;;;;;;;;;;;;5016692;28;20370;-69
2023/07/10 10:25:29;;;;;;;;;;;;;;;;;;5030255;28;19925;-68
2023/07/10 10:28:00;;;;;;;;;;;;;;;;;;5023640;28;20286;-68
2023/07/10 10:30:34;;;;;;;;;;;;;;;;;;5032990;28;19925;-69
2023/07/10 10:33:08;;;;;;;;;;;;;;;;;;5035404;28;20287;-68
2023/07/10 10:35:41;;;;;;;;;;;;;;;;;;5035415;28;20311;-68
2023/07/10 10:38:15;;;;;;;;;;;;;;;;;;5046829;28;20271;-69
2023/07/10 10:40:47;;;;;;;;;;;;;;;;;;5030253;28;19925;-68
2023/07/10 10:43:34;;;;;;;;;;;;;;;;;;5031052;28;20329;-69
2023/07/10 10:46:04;;;;;;;;;;;;;;;;;;5029878;28;20310;-68
2023/07/10 10:48:33;;;;;;;;;;;;;;;;;;5027958;28;19925;-68
2023/07/10 10:51:03;;;;;;;;;;;;;;;;;;5030458;28;19971;-68
2023/07/10 10:53:36;;;;;;;;;;;;;;;;;;5033595;28;19925;-68
2023/07/10 10:56:10;;;;;;;;;;;;;;;;;;5046227;28;20394;-68
2023/07/10 10:58:45;;;;;;;;;;;;;;;;;;5037720;28;19925;-69
2023/07/10 11:01:18;;;;;;;;;;;;;;;;;;5025841;28;19925;-69
2023/07/10 11:03:46;;;;;;;;;;;;;;;;;;5031879;28;19925;-69
2023/07/10 11:06:33;;;;;;;;;;;;;;;;;;5035565;28;20012;-69
2023/07/10 11:09:01;;;;;;;;;;;;;;;;;;5027472;28;19925;-68
2023/07/10 11:11:29;;;;;;;;;;;;;;;;;;5048576;28;20370;-68
2023/07/10 11:13:55;;;;;;;;;;;;;;;;;;5035975;28;20405;-67
2023/07/10 11:16:23;;;;;;;;;;;;;;;;;;5023709;28;19933;-67
2023/07/10 11:18:50;;;;;;;;;;;;;;;;;;5028717;28;20241;-68
2023/07/10 11:21:17;;;;;;;;;;;;;;;;;;5024720;28;19976;-67
2023/07/10 11:23:49;;;;;;;;;;;;;;;;;;5027452;28;20395;-68
2023/07/10 11:26:17;;;;;;;;;;;;;;;;;;5030307;28;19936;-67
2023/07/10 11:28:51;;;;;;;;;;;;;;;;;;5030126;28;19925;-67
2023/07/10 11:31:20;;;;;;;;;;;;;;;;;;5029900;28;20014;-66
2023/07/10 11:33:52;;;;;;;;;;;;;;;;;;5028980;28;19925;-67
2023/07/10 11:36:19;;;;;;;;;;;;;;;;;;5030442;28;19975;-68
2023/07/10 11:38:56;;;;;;;;;;;;;;;;;;5028680;28;20380;-67
2023/07/10 11:41:24;;;;;;;;;;;;;;;;;;5029582;28;19929;-68
2023/07/10 11:43:52;;;;;;;;;;;;;;;;;;5030377;28;20020;-68
2023/07/10 11:46:23;;;;;;;;;;;;;;;;;;5029798;28;20024;-68
2023/07/10 11:49:00;;;;;;;;;;;;;;;;;;5029268;28;20108;-67
2023/07/10 11:51:27;;;;;;;;;;;;;;;;;;5028328;28;19929;-68
2023/07/10 11:54:08;;;;;;;;;;;;;;;;;;5030141;28;19925;-68
2023/07/10 11:56:35;;;;;;;;;;;;;;;;;;5007720;28;19925;-67
2023/07/10 11:59:15;;;;;;;;;;;;;;;;;;5031037;28;20020;-67
2023/07/10 12:01:42;;;;;;;;;;;;;;;;;;5020767;28;20018;-67
2023/07/10 12:04:12;;;;;;;;;;;;;;;;;;5029123;28;20286;-69
2023/07/10 12:06:43;;;;;;;;;;;;;;;;;;5028935;28;19925;-69
2023/07/10 12:09:10;;;;;;;;;;;;;;;;;;5044581;28;20417;-70
2023/07/10 12:11:37;;;;;;;;;;;;;;;;;;5028406;28;19929;-68
2023/07/10 12:14:05;;;;;;;;;;;;;;;;;;5036179;28;20298;-69
2023/07/10 12:16:33;;;;;;;;;;;;;;;;;;5038577;28;20383;-67
2023/07/10 12:19:02;;;;;;;;;;;;;;;;;;5031420;28;19925;-68
2023/07/10 12:21:28;;;;;;;;;;;;;;;;;;5027953;28;19929;-70
2023/07/10 12:23:58;;;;;;;;;;;;;;;;;;5027153;28;19925;-68
2023/07/10 12:26:24;;;;;;;;;;;;;;;;;;5026705;28;19936;-69
2023/07/10 12:28:53;;;;;;;;;;;;;;;;;;5036047;28;19926;-69
2023/07/10 12:31:19;;;;;;;;;;;;;;;;;;5019263;28;19925;-68
2023/07/10 12:33:47;;;;;;;;;;;;;;;;;;5029367;28;19940;-68
2023/07/10 12:36:22;;;;;;;;;;;;;;;;;;5027279;28;19929;-68
2023/07/10 12:38:49;;;;;;;;;;;;;;;;;;5025308;28;19925;-68
2023/07/10 12:41:19;;;;;;;;;;;;;;;;;;5032254;28;19925;-68
2023/07/10 12:43:51;;;;;;;;;;;;;;;;;;5032726;28;19995;-67
2023/07/10 12:46:21;;;;;;;;;;;;;;;;;;5033438;28;19933;-69
2023/07/10 12:48:49;;;;;;;;;;;;;;;;;;5033135;28;19926;-68
2023/07/10 12:51:18;;;;;;;;;;;;;;;;;;5033556;28;19973;-67
2023/07/10 12:53:44;;;;;;;;;;;;;;;;;;5033357;28;19925;-68
2023/07/10 12:56:21;;;;;;;;;;;;;;;;;;5033515;28;20007;-68
2023/07/10 12:58:49;;;;;;;;;;;;;;;;;;5032948;28;20024;-69
2023/07/10 13:01:19;;;;;;;;;;;;;;;;;;5033198;28;20302;-68
2023/07/10 13:03:58;;;;;;;;;;;;;;;;;;5033513;28;19932;-69
2023/07/10 13:06:24;;;;;;;;;;;;;;;;;;5031895;28;20405;-68
2023/07/10 13:08:51;;;;;;;;;;;;;;;;;;5033505;28;20040;-68
2023/07/10 13:11:21;;;;;;;;;;;;;;;;;;5032623;28;19931;-68
2023/07/10 13:13:49;;;;;;;;;;;;;;;;;;5033437;28;19929;-68
2023/07/10 13:16:17;;;;;;;;;;;;;;;;;;5032645;28;19925;-69
2023/07/10 13:18:44;;;;;;;;;;;;;;;;;;5033132;28;19925;-68
2023/07/10 13:21:13;;;;;;;;;;;;;;;;;;5032946;28;19925;-69
2023/07/10 13:23:40;;;;;;;;;;;;;;;;;;5033368;28;19925;-68
2023/07/10 13:26:10;;;;;;;;;;;;;;;;;;5032922;28;19983;-68
2023/07/10 13:28:36;;;;;;;;;;;;;;;;;;5033132;28;19940;-70
2023/07/10 13:31:04;;;;;;;;;;;;;;;;;;5032376;28;19925;-69
2023/07/10 13:33:31;;;;;;;;;;;;;;;;;;5032821;28;19932;-68
2023/07/10 13:35:58;;;;;;;;;;;;;;;;;;5032873;28;19980;-70
2023/07/10 13:38:25;;;;;;;;;;;;;;;;;;5031107;28;19951;-69
2023/07/10 13:40:51;;;;;;;;;;;;;;;;;;5032492;28;19931;-69
2023/07/10 13:43:19;;;;;;;;;;;;;;;;;;5032511;28;19929;-68
2023/07/10 13:45:46;;;;;;;;;;;;;;;;;;5032631;28;19932;-68
2023/07/10 13:48:16;;;;;;;;;;;;;;;;;;5032172;28;19971;-68
2023/07/10 13:50:43;;;;;;;;;;;;;;;;;;5032336;28;20367;-68
2023/07/10 13:53:10;;;;;;;;;;;;;;;;;;5032337;28;19925;-68
2023/07/10 13:55:37;;;;;;;;;;;;;;;;;;5032337;28;20016;-68
2023/07/10 13:58:05;;;;;;;;;;;;;;;;;;5032111;28;20020;-68
2023/07/10 14:00:32;;;;;;;;;;;;;;;;;;5032122;28;20439;-69
2023/07/10 14:02:58;;;;;;;;;;;;;;;;;;5031983;28;19932;-69
2023/07/10 14:05:26;;;;;;;;;;;;;;;;;;5031862;28;20523;-68
2023/07/10 14:07:52;;;;;;;;;;;;;;;;;;5032012;28;19925;-69
2023/07/10 14:10:20;;;;;;;;;;;;;;;;;;5030532;28;19925;-68
2023/07/10 14:12:46;;;;;;;;;;;;;;;;;;5032254;28;19925;-68
2023/07/10 14:15:14;;;;;;;;;;;;;;;;;;5031959;28;20286;-68
2023/07/10 14:17:41;;;;;;;;;;;;;;;;;;5031845;28;20424;-68
2023/07/10 14:20:10;;;;;;;;;;;;;;;;;;5030963;28;20353;-68
2023/07/10 14:22:38;;;;;;;;;;;;;;;;;;5032564;28;20399;-68
2023/07/10 14:25:04;;;;;;;;;;;;;;;;;;5031661;28;19931;-68
2023/07/10 14:27:31;;;;;;;;;;;;;;;;;;5032215;28;20011;-67
2023/07/10 14:29:57;;;;;;;;;;;;;;;;;;5031254;28;19925;-67
2023/07/10 14:32:27;;;;;;;;;;;;;;;;;;5031774;28;20008;-67
2023/07/10 14:34:53;;;;;;;;;;;;;;;;;;5031090;28;20393;-68
2023/07/10 14:37:21;;;;;;;;;;;;;;;;;;5051746;28;20185;-68
2023/07/10 14:39:49;;;;;;;;;;;;;;;;;;5051172;28;20367;-67
2023/07/10 14:42:17;;;;;;;;;;;;;;;;;;5051853;28;20022;-68
2023/07/10 14:44:44;;;;;;;;;;;;;;;;;;5051645;28;19929;-69
2023/07/10 14:47:25;;;;;;;;;;;;;;;;;;5051591;28;19931;-69
2023/07/10 14:49:52;;;;;;;;;;;;;;;;;;5051140;28;19925;-69
2023/07/10 14:52:19;;;;;;;;;;;;;;;;;;5049027;28;20309;-68
2023/07/10 14:54:45;;;;;;;;;;;;;;;;;;5031056;28;19936;-68
2023/07/10 14:57:18;;;;;;;;;;;;;;;;;;5010748;28;19973;-68
2023/07/10 14:59:45;;;;;;;;;;;;;;;;;;5010942;28;19929;-69
2023/07/10 15:02:15;;;;;;;;;;;;;;;;;;5010503;28;19925;-68
2023/07/10 15:04:41;;;;;;;;;;;;;;;;;;5011503;28;20375;-67
2023/07/10 15:07:09;;;;;;;;;;;;;;;;;;5014856;28;19925;-68
2023/07/10 15:09:36;;;;;;;;;;;;;;;;;;5030935;28;20462;-68
2023/07/10 15:12:02;;;;;;;;;;;;;;;;;;5030580;28;19973;-68
2023/07/10 15:14:30;;;;;;;;;;;;;;;;;;5030529;28;19925;-68
2023/07/10 15:16:56;;;;;;;;;;;;;;;;;;5030725;28;19925;-68
2023/07/10 15:19:25;;;;;;;;;;;;;;;;;;5030330;28;19925;-68
2023/07/10 15:21:52;;;;;;;;;;;;;;;;;;5030478;28;19929;-69
2023/07/10 15:24:22;;;;;;;;;;;;;;;;;;5028586;28;19935;-68
2023/07/10 15:26:48;;;;;;;;;;;;;;;;;;5031039;28;19980;-67
2023/07/10 15:29:14;;;;;;;;;;;;;;;;;;5030213;28;19935;-68
2023/07/10 15:31:42;;;;;;;;;;;;;;;;;;5030315;28;20012;-68
2023/07/10 15:34:13;;;;;;;;;;;;;;;;;;5030903;28;19925;-68
2023/07/10 15:36:39;;;;;;;;;;;;;;;;;;5030622;28;19929;-68
2023/07/10 15:39:12;;;;;;;;;;;;;;;;;;5030352;28;19925;-67
2023/07/10 15:41:39;;;;;;;;;;;;;;;;;;5029819;28;20294;-68
2023/07/10 15:44:09;;;;;;;;;;;;;;;;;;5053037;22;19974;-67
2023/07/10 15:46:35;;;;;;;;;;;;;;;;;;5050221;28;19925;-67
2023/07/10 15:49:05;;;;;;;;;;;;;;;;;;5066668;28;20013;-66
2023/07/10 15:51:32;;;;;;;;;;;;;;;;;;5069625;28;19924;-67
2023/07/10 15:53:58;;;;;;;;;;;;;;;;;;5070436;28;19968;-67
2023/07/10 15:56:26;;;;;;;;;;;;;;;;;;5070384;28;19929;-67
2023/07/10 15:58:53;;;;;;;;;;;;;;;;;;5070659;28;19930;-67
2023/07/10 16:01:20;;;;;;;;;;;;;;;;;;5069729;28;19924;-66
2023/07/10 16:03:48;;;;;;;;;;;;;;;;;;5070650;28;20222;-67
2023/07/10 16:06:16;;;;;;;;;;;;;;;;;;5069224;28;19942;-67
2023/07/10 16:08:42;;;;;;;;;;;;;;;;;;5063266;28;20396;-68
2023/07/10 16:11:12;;;;;;;;;;;;;;;;;;5050303;28;20273;-68
2023/07/10 16:13:39;;;;;;;;;;;;;;;;;;5049366;28;19935;-68
2023/07/10 16:16:05;;;;;;;;;;;;;;;;;;5050347;28;19925;-66
2023/07/10 16:18:33;;;;;;;;;;;;;;;;;;5050085;28;19931;-67
2023/07/10 16:21:03;;;;;;;;;;;;;;;;;;5049893;28;19929;-66
2023/07/10 16:23:32;;;;;;;;;;;;;;;;;;5050610;28;19974;-66
2023/07/10 16:25:58;;;;;;;;;;;;;;;;;;5050363;28;19935;-67
2023/07/10 16:28:26;;;;;;;;;;;;;;;;;;5050436;28;19931;-67
2023/07/10 16:30:53;;;;;;;;;;;;;;;;;;5049582;28;20342;-67
2023/07/10 16:33:20;;;;;;;;;;;;;;;;;;5049980;28;19925;-66
2023/07/10 16:35:47;;;;;;;;;;;;;;;;;;5066366;28;19924;-67
2023/07/10 16:38:15;;;;;;;;;;;;;;;;;;5070682;28;19924;-67
2023/07/10 16:40:44;;;;;;;;;;;;;;;;;;5070262;28;19932;-67
2023/07/10 16:43:12;;;;;;;;;;;;;;;;;;5070414;28;19975;-66
2023/07/10 16:45:39;;;;;;;;;;;;;;;;;;5069691;28;20051;-64
2023/07/10 16:48:06;;;;;;;;;;;;;;;;;;5070410;28;19928;-66
2023/07/10 16:50:32;;;;;;;;;;;;;;;;;;5069805;28;19931;-66